Time;durP1;ratioP1;P1;durP2;ratioP2;P2;SDS_P1;SDS_P2;PMS_P1;PMS_P2;Temp;Humidity;BMP_temperature;BMP_pressure;BME280_temperature;BME280_humidity;BME280_pressure;Samples;Min_cycle;Max_cycle;Signal;HPM_P1;HPM_P2
2021/12/08 00:01:42;;;;;;;;;;;22.10;32.10;;;;;;478522;249;1581;-46
2021/12/08 00:03:43;;;;;;;;;;;22.10;32.10;;;;;;478367;249;1062;-46
2021/12/08 00:05:45;;;;;;;;;;;22.10;32.10;;;;;;478552;249;1188;-47
2021/12/08 00:07:46;;;;;;;;;;;22.10;32.00;;;;;;478310;249;1186;-47
2021/12/08 00:10:00;;;;;;;;;;;22.20;32.10;;;;;;478657;249;1248;-46
2021/12/08 00:14:08;;;;;;;;;;;22.20;32.10;;;;;;478367;248;1044;-46
2021/12/08 00:16:10;;;;;;;;;;;22.20;32.10;;;;;;478689;249;1136;-47
2021/12/08 00:18:11;;;;;;;;;;;22.20;32.00;;;;;;478660;249;1229;-47
2021/12/08 00:20:12;;;;;;;;;;;22.20;32.00;;;;;;478606;248;2119;-47
2021/12/08 00:22:14;;;;;;;;;;;22.20;32.00;;;;;;478751;249;1313;-47
2021/12/08 00:24:15;;;;;;;;;;;22.20;32.00;;;;;;478824;249;1068;-47
2021/12/08 00:26:16;;;;;;;;;;;22.20;32.00;;;;;;478508;249;1295;-46
2021/12/08 00:28:18;;;;;;;;;;;22.20;32.00;;;;;;478829;249;1088;-47
2021/12/08 00:30:19;;;;;;;;;;;22.30;32.00;;;;;;478680;249;974;-47
2021/12/08 00:32:25;;;;;;;;;;;22.30;32.00;;;;;;478575;249;1097;-47
2021/12/08 00:34:22;;;;;;;;;;;22.30;32.00;;;;;;478247;248;1988;-47
2021/12/08 00:36:29;;;;;;;;;;;22.30;32.00;;;;;;478325;249;1185;-46
2021/12/08 00:38:24;;;;;;;;;;;22.30;32.00;;;;;;478463;248;1980;-46
2021/12/08 00:40:26;;;;;;;;;;;22.30;32.00;;;;;;478805;249;2131;-47
2021/12/08 00:42:27;;;;;;;;;;;22.30;31.90;;;;;;478367;248;1316;-46
2021/12/08 00:44:28;;;;;;;;;;;22.30;31.90;;;;;;478444;249;1213;-47
2021/12/08 00:46:30;;;;;;;;;;;22.30;31.90;;;;;;478281;249;1052;-47
2021/12/08 00:48:31;;;;;;;;;;;22.30;31.90;;;;;;478345;249;1211;-47
2021/12/08 00:50:32;;;;;;;;;;;22.40;31.90;;;;;;478875;248;1055;-46
2021/12/08 00:52:34;;;;;;;;;;;22.30;31.80;;;;;;478427;249;1202;-46
2021/12/08 00:54:35;;;;;;;;;;;22.40;31.90;;;;;;478863;249;1058;-47
2021/12/08 00:56:36;;;;;;;;;;;22.40;31.90;;;;;;478353;249;1130;-47
2021/12/08 00:58:38;;;;;;;;;;;22.40;31.80;;;;;;478430;249;1054;-47
2021/12/08 01:00:39;;;;;;;;;;;22.40;31.90;;;;;;478325;249;2206;-46
2021/12/08 01:02:40;;;;;;;;;;;22.40;31.80;;;;;;478385;249;1127;-47
2021/12/08 01:04:41;;;;;;;;;;;22.40;31.80;;;;;;478833;248;1228;-47
2021/12/08 01:06:43;;;;;;;;;;;22.40;31.80;;;;;;478724;249;1084;-47
2021/12/08 01:08:44;;;;;;;;;;;22.40;31.80;;;;;;478806;249;1079;-47
2021/12/08 01:10:45;;;;;;;;;;;22.40;31.80;;;;;;478423;248;1072;-47
2021/12/08 01:12:47;;;;;;;;;;;22.50;31.80;;;;;;478362;249;1092;-47
2021/12/08 01:14:48;;;;;;;;;;;22.50;31.80;;;;;;478392;249;1084;-47
2021/12/08 01:16:51;;;;;;;;;;;22.50;31.80;;;;;;478398;249;1198;-47
2021/12/08 01:18:52;;;;;;;;;;;22.50;31.80;;;;;;478407;249;1194;-47
2021/12/08 01:20:53;;;;;;;;;;;22.50;31.80;;;;;;478556;249;2199;-47
2021/12/08 01:22:54;;;;;;;;;;;22.50;31.70;;;;;;478349;249;1147;-47
2021/12/08 01:24:56;;;;;;;;;;;22.50;31.70;;;;;;478603;248;1009;-47
2021/12/08 01:26:57;;;;;;;;;;;22.50;31.80;;;;;;478469;249;1235;-46
2021/12/08 01:28:58;;;;;;;;;;;22.50;31.80;;;;;;478822;249;1072;-46
2021/12/08 01:31:01;;;;;;;;;;;22.50;31.70;;;;;;478672;248;1111;-46
2021/12/08 01:33:01;;;;;;;;;;;22.50;31.70;;;;;;478749;248;2155;-47
2021/12/08 01:35:04;;;;;;;;;;;22.50;31.70;;;;;;478819;249;1103;-47
2021/12/08 01:37:03;;;;;;;;;;;22.50;31.70;;;;;;478268;249;2040;-47
2021/12/08 01:39:05;;;;;;;;;;;22.50;31.70;;;;;;478365;249;1112;-47
2021/12/08 01:41:06;;;;;;;;;;;22.50;31.70;;;;;;478546;249;2211;-46
2021/12/08 01:43:12;;;;;;;;;;;22.60;31.70;;;;;;478405;249;1046;-46
2021/12/08 01:47:29;;;;;;;;;;;22.50;31.60;;;;;;478636;248;1244;-47
2021/12/08 01:49:30;;;;;;;;;;;22.50;31.70;;;;;;478813;249;1080;-47
2021/12/08 01:51:31;;;;;;;;;;;22.60;31.70;;;;;;478390;249;1198;-46
2021/12/08 01:53:32;;;;;;;;;;;22.50;31.60;;;;;;478822;248;1252;-47
2021/12/08 01:55:34;;;;;;;;;;;22.60;31.70;;;;;;478804;249;1118;-47
2021/12/08 01:57:35;;;;;;;;;;;22.60;31.70;;;;;;478492;249;1177;-47
2021/12/08 01:59:36;;;;;;;;;;;22.60;31.70;;;;;;478393;249;1083;-47
2021/12/08 02:01:38;;;;;;;;;;;22.60;31.70;;;;;;478752;249;2179;-46
2021/12/08 02:03:39;;;;;;;;;;;22.60;31.60;;;;;;478635;249;1274;-47
2021/12/08 02:05:40;;;;;;;;;;;22.60;31.70;;;;;;478601;249;1038;-47
2021/12/08 02:07:42;;;;;;;;;;;22.60;31.60;;;;;;478346;249;1199;-47
2021/12/08 02:09:43;;;;;;;;;;;22.60;31.70;;;;;;478846;249;1065;-47
2021/12/08 02:11:45;;;;;;;;;;;22.60;31.60;;;;;;478707;249;1302;-47
2021/12/08 02:13:48;;;;;;;;;;;22.60;31.70;;;;;;478423;248;1267;-47
2021/12/08 02:15:48;;;;;;;;;;;22.60;31.60;;;;;;478260;249;2594;-47
2021/12/08 02:17:49;;;;;;;;;;;22.60;31.60;;;;;;478405;249;1597;-47
2021/12/08 02:19:50;;;;;;;;;;;22.60;31.60;;;;;;478636;249;1167;-47
2021/12/08 02:21:52;;;;;;;;;;;22.60;31.60;;;;;;478303;249;2128;-47
2021/12/08 02:23:53;;;;;;;;;;;22.60;31.60;;;;;;478583;249;1163;-46
2021/12/08 02:25:55;;;;;;;;;;;22.60;31.50;;;;;;478787;249;1115;-47
2021/12/08 02:27:56;;;;;;;;;;;22.60;31.50;;;;;;478503;249;1195;-47
2021/12/08 02:30:12;;;;;;;;;;;22.60;31.60;;;;;;478840;249;1167;-47
2021/12/08 02:32:05;;;;;;;;;;;22.60;31.50;;;;;;477468;249;1522;-47
2021/12/08 02:47:56;;;;;;;;;;;22.70;31.50;;;;;;478368;248;1047;-47
2021/12/08 02:49:57;;;;;;;;;;;22.70;31.50;;;;;;478775;249;1056;-46
2021/12/08 02:51:59;;;;;;;;;;;22.70;31.50;;;;;;478569;249;1451;-46
2021/12/08 02:54:00;;;;;;;;;;;22.70;31.60;;;;;;478675;248;1027;-46
2021/12/08 02:56:01;;;;;;;;;;;22.70;31.50;;;;;;478475;249;1344;-47
2021/12/08 02:58:03;;;;;;;;;;;22.70;31.50;;;;;;478502;249;1221;-46
2021/12/08 03:00:04;;;;;;;;;;;22.70;31.50;;;;;;478859;248;1054;-47
2021/12/08 03:02:06;;;;;;;;;;;22.70;31.50;;;;;;478397;249;2199;-47
2021/12/08 03:04:07;;;;;;;;;;;22.70;31.50;;;;;;478668;249;1071;-46
2021/12/08 03:06:08;;;;;;;;;;;22.70;31.50;;;;;;478784;249;1171;-46
2021/12/08 03:08:10;;;;;;;;;;;22.70;31.50;;;;;;478311;249;1060;-47
2021/12/08 03:10:11;;;;;;;;;;;22.70;31.50;;;;;;478338;249;1074;-47
2021/12/08 03:12:12;;;;;;;;;;;22.70;31.50;;;;;;478449;248;1282;-47
2021/12/08 03:14:14;;;;;;;;;;;22.70;31.50;;;;;;478366;249;1092;-46
2021/12/08 03:16:15;;;;;;;;;;;22.70;31.50;;;;;;478728;249;1392;-47
2021/12/08 03:18:16;;;;;;;;;;;22.70;31.50;;;;;;478811;248;1097;-47
2021/12/08 03:20:21;;;;;;;;;;;22.70;31.50;;;;;;478804;249;2177;-47
2021/12/08 03:22:19;;;;;;;;;;;22.70;31.50;;;;;;478166;249;1461;-47
2021/12/08 03:24:25;;;;;;;;;;;22.70;31.50;;;;;;478823;249;1042;-47
2021/12/08 03:26:29;;;;;;;;;;;22.80;31.50;;;;;;478416;248;1631;-47
2021/12/08 03:28:29;;;;;;;;;;;22.70;31.50;;;;;;478217;248;2182;-46
2021/12/08 03:30:33;;;;;;;;;;;22.80;31.50;;;;;;478202;248;2148;-47
2021/12/08 03:32:32;;;;;;;;;;;22.80;31.50;;;;;;478337;248;2045;-47
2021/12/08 03:34:30;;;;;;;;;;;22.70;31.50;;;;;;478507;248;1976;-46
2021/12/08 03:36:30;;;;;;;;;;;22.70;31.50;;;;;;478649;248;2559;-47
2021/12/08 03:38:31;;;;;;;;;;;22.80;31.50;;;;;;478827;248;1061;-47
2021/12/08 03:40:33;;;;;;;;;;;22.70;31.50;;;;;;478809;248;2128;-46
2021/12/08 03:42:36;;;;;;;;;;;22.60;31.70;;;;;;478333;249;2344;-47
2021/12/08 03:44:36;;;;;;;;;;;22.40;31.90;;;;;;478360;248;2151;-47
2021/12/08 03:46:41;;;;;;;;;;;22.20;32.30;;;;;;478709;249;994;-46
2021/12/08 03:48:45;;;;;;;;;;;22.10;32.60;;;;;;478563;248;2050;-46
2021/12/08 03:50:39;;;;;;;;;;;21.90;32.80;;;;;;478405;248;2310;-46
2021/12/08 03:52:41;;;;;;;;;;;21.80;33.00;;;;;;478530;248;1158;-46
2021/12/08 03:54:42;;;;;;;;;;;21.70;33.20;;;;;;478767;248;1046;-46
2021/12/08 03:56:43;;;;;;;;;;;21.60;33.20;;;;;;478629;249;1346;-47
2021/12/08 03:58:45;;;;;;;;;;;21.50;33.30;;;;;;478397;249;1202;-46
2021/12/08 04:00:46;;;;;;;;;;;21.50;33.40;;;;;;478730;249;2135;-46
2021/12/08 04:02:48;;;;;;;;;;;21.50;33.40;;;;;;478381;249;1245;-45
2021/12/08 04:04:51;;;;;;;;;;;21.50;33.40;;;;;;478417;249;1034;-46
2021/12/08 04:06:52;;;;;;;;;;;21.50;33.50;;;;;;478217;249;2200;-46
2021/12/08 04:08:56;;;;;;;;;;;21.40;33.50;;;;;;478211;249;2371;-46
2021/12/08 04:10:54;;;;;;;;;;;21.30;33.70;;;;;;478573;248;2362;-46
2021/12/08 04:12:55;;;;;;;;;;;21.30;33.70;;;;;;478370;249;1191;-46
2021/12/08 04:14:56;;;;;;;;;;;21.30;33.80;;;;;;478407;249;1001;-46
2021/12/08 04:16:58;;;;;;;;;;;21.30;33.70;;;;;;478294;249;1412;-46
2021/12/08 04:18:59;;;;;;;;;;;21.30;33.70;;;;;;478385;249;1052;-46
2021/12/08 04:21:01;;;;;;;;;;;21.30;33.80;;;;;;478805;248;2222;-46
2021/12/08 04:23:02;;;;;;;;;;;21.30;33.80;;;;;;478293;249;2096;-46
2021/12/08 04:25:03;;;;;;;;;;;21.20;33.80;;;;;;478621;249;1071;-46
2021/12/08 04:27:04;;;;;;;;;;;21.20;33.80;;;;;;478324;249;1328;-46
2021/12/08 04:29:06;;;;;;;;;;;21.20;33.90;;;;;;478381;249;1429;-47
2021/12/08 04:31:07;;;;;;;;;;;21.10;33.90;;;;;;478783;249;1335;-45
2021/12/08 04:33:08;;;;;;;;;;;21.10;33.90;;;;;;478355;249;1097;-46
2021/12/08 04:35:10;;;;;;;;;;;21.10;33.90;;;;;;478859;248;1233;-45
2021/12/08 04:37:17;;;;;;;;;;;21.10;33.90;;;;;;478398;248;1220;-46
2021/12/08 04:39:15;;;;;;;;;;;21.20;34.00;;;;;;478036;249;2442;-46
2021/12/08 04:41:14;;;;;;;;;;;21.10;33.90;;;;;;478644;248;2124;-46
2021/12/08 04:43:20;;;;;;;;;;;21.10;34.00;;;;;;478436;249;1274;-47
2021/12/08 04:45:23;;;;;;;;;;;21.10;34.00;;;;;;478062;249;1931;-46
2021/12/08 04:47:33;;;;;;;;;;;21.10;34.00;;;;;;477928;249;1311;-46
2021/12/08 04:49:51;;;;;;;;;;;21.10;34.00;;;;;;478231;248;2437;-46
2021/12/08 04:51:53;;;;;;;;;;;21.10;34.10;;;;;;477199;249;2059;-46
2021/12/08 05:00:10;;;;;;;;;;;21.10;34.10;;;;;;478056;248;2198;-46
2021/12/08 05:01:15;;;;;;;;;;;21.00;34.10;;;;;;478327;248;2148;-46
2021/12/08 05:03:38;;;;;;;;;;;21.00;34.10;;;;;;478211;248;2295;-46
2021/12/08 05:05:38;;;;;;;;;;;21.00;34.10;;;;;;477441;249;1535;-46
2021/12/08 05:07:46;;;;;;;;;;;21.00;34.10;;;;;;477647;248;2168;-46
2021/12/08 05:09:31;;;;;;;;;;;21.00;34.20;;;;;;477352;249;1929;-46
2021/12/08 05:11:33;;;;;;;;;;;21.00;34.20;;;;;;478305;248;995;-46
2021/12/08 05:13:34;;;;;;;;;;;21.00;34.10;;;;;;478326;248;1197;-46
2021/12/08 05:15:35;;;;;;;;;;;21.00;34.20;;;;;;478546;249;1229;-46
2021/12/08 05:17:37;;;;;;;;;;;21.00;34.10;;;;;;478333;249;1013;-46
2021/12/08 05:19:38;;;;;;;;;;;21.00;34.20;;;;;;478384;249;1229;-46
2021/12/08 05:21:39;;;;;;;;;;;21.00;34.10;;;;;;478519;249;2135;-46
2021/12/08 05:23:41;;;;;;;;;;;21.00;34.10;;;;;;478587;249;1068;-46
2021/12/08 05:25:42;;;;;;;;;;;21.00;34.10;;;;;;478656;248;1166;-47
2021/12/08 05:27:44;;;;;;;;;;;21.00;34.10;;;;;;478567;249;1173;-46
2021/12/08 05:29:44;;;;;;;;;;;21.00;34.00;;;;;;478450;249;1508;-46
2021/12/08 05:31:46;;;;;;;;;;;20.90;34.10;;;;;;478503;249;1167;-46
2021/12/08 05:33:47;;;;;;;;;;;20.90;34.10;;;;;;478507;249;1050;-46
2021/12/08 05:35:48;;;;;;;;;;;20.90;34.10;;;;;;478540;249;1358;-46
2021/12/08 05:37:50;;;;;;;;;;;20.90;34.20;;;;;;478187;249;1028;-46
2021/12/08 05:39:51;;;;;;;;;;;20.90;34.20;;;;;;478317;249;1144;-46
2021/12/08 05:41:52;;;;;;;;;;;20.90;34.20;;;;;;478075;249;2136;-46
2021/12/08 05:43:54;;;;;;;;;;;20.90;34.10;;;;;;478176;249;1248;-46
2021/12/08 05:45:55;;;;;;;;;;;20.90;34.20;;;;;;478297;249;1113;-46
2021/12/08 05:47:56;;;;;;;;;;;20.90;34.10;;;;;;478261;248;1073;-46
2021/12/08 05:49:58;;;;;;;;;;;20.90;34.10;;;;;;478442;248;1072;-46
2021/12/08 05:51:59;;;;;;;;;;;20.80;34.20;;;;;;478151;249;1266;-46
2021/12/08 05:54:00;;;;;;;;;;;20.90;34.20;;;;;;478601;249;1035;-46
2021/12/08 05:56:02;;;;;;;;;;;20.90;34.20;;;;;;478168;249;1112;-46
2021/12/08 05:58:03;;;;;;;;;;;20.90;34.20;;;;;;478489;249;1098;-47
2021/12/08 06:00:05;;;;;;;;;;;20.90;34.20;;;;;;478158;249;1240;-46
2021/12/08 06:02:06;;;;;;;;;;;20.80;34.10;;;;;;478339;249;2136;-46
2021/12/08 06:04:07;;;;;;;;;;;20.80;34.20;;;;;;478302;249;1070;-46
2021/12/08 06:06:09;;;;;;;;;;;20.90;34.20;;;;;;478113;249;1168;-46
2021/12/08 06:08:10;;;;;;;;;;;20.90;34.20;;;;;;478230;249;1101;-46
2021/12/08 06:10:13;;;;;;;;;;;20.80;34.20;;;;;;478111;249;1061;-46
2021/12/08 06:12:12;;;;;;;;;;;20.80;34.20;;;;;;477942;248;2237;-46
2021/12/08 06:14:14;;;;;;;;;;;20.80;34.20;;;;;;477899;249;1109;-46
2021/12/08 06:16:15;;;;;;;;;;;20.80;34.20;;;;;;477944;249;1095;-46
2021/12/08 06:18:20;;;;;;;;;;;20.80;34.20;;;;;;478028;249;1172;-46
2021/12/08 06:20:18;;;;;;;;;;;20.80;34.20;;;;;;477950;249;2572;-46
2021/12/08 06:22:19;;;;;;;;;;;20.80;34.20;;;;;;478124;249;2194;-46
2021/12/08 06:24:21;;;;;;;;;;;20.80;34.20;;;;;;478258;249;1071;-46
2021/12/08 06:26:22;;;;;;;;;;;20.80;34.20;;;;;;478053;249;1062;-46
2021/12/08 06:28:23;;;;;;;;;;;20.80;34.30;;;;;;478038;249;1090;-46
2021/12/08 06:30:25;;;;;;;;;;;20.80;34.30;;;;;;478053;249;1226;-46
2021/12/08 06:32:26;;;;;;;;;;;20.70;34.20;;;;;;477901;249;1389;-46
2021/12/08 06:34:27;;;;;;;;;;;20.70;34.20;;;;;;478237;249;1086;-46
2021/12/08 06:36:29;;;;;;;;;;;20.80;34.30;;;;;;477991;249;1226;-46
2021/12/08 06:38:30;;;;;;;;;;;20.70;34.20;;;;;;477956;249;1077;-46
2021/12/08 06:40:31;;;;;;;;;;;20.70;34.20;;;;;;477932;249;1203;-47
2021/12/08 06:42:33;;;;;;;;;;;20.70;34.30;;;;;;478097;248;2195;-46
2021/12/08 06:44:34;;;;;;;;;;;20.70;34.30;;;;;;478000;249;1188;-46
2021/12/08 06:46:35;;;;;;;;;;;20.70;34.30;;;;;;478035;249;1201;-46
2021/12/08 06:48:38;;;;;;;;;;;20.70;34.20;;;;;;478195;249;1021;-46
2021/12/08 06:50:39;;;;;;;;;;;20.80;34.30;;;;;;478058;248;1067;-46
2021/12/08 06:52:40;;;;;;;;;;;20.70;34.20;;;;;;478033;249;1369;-46
2021/12/08 06:54:42;;;;;;;;;;;20.70;34.20;;;;;;477977;249;1149;-46
2021/12/08 06:56:45;;;;;;;;;;;20.70;34.20;;;;;;478049;249;1266;-46
2021/12/08 06:58:47;;;;;;;;;;;20.80;34.20;;;;;;477927;248;1993;-46
2021/12/08 07:00:51;;;;;;;;;;;20.80;34.20;;;;;;477866;248;2233;-46
2021/12/08 07:02:59;;;;;;;;;;;20.80;34.30;;;;;;477700;249;2206;-46
2021/12/08 07:05:08;;;;;;;;;;;20.80;34.20;;;;;;477556;248;1501;-46
2021/12/08 07:06:59;;;;;;;;;;;20.70;34.20;;;;;;477035;248;1294;-46
2021/12/08 07:08:58;;;;;;;;;;;20.70;34.30;;;;;;477974;248;2097;-46
2021/12/08 07:11:00;;;;;;;;;;;20.70;34.20;;;;;;477857;249;1121;-45
2021/12/08 07:13:01;;;;;;;;;;;20.70;34.30;;;;;;477939;249;1359;-46
2021/12/08 07:15:02;;;;;;;;;;;20.80;34.30;;;;;;477726;249;1314;-46
2021/12/08 07:17:05;;;;;;;;;;;20.80;34.20;;;;;;477639;249;1133;-46
2021/12/08 07:19:09;;;;;;;;;;;20.70;34.20;;;;;;477745;248;2458;-46
2021/12/08 07:21:07;;;;;;;;;;;20.70;34.20;;;;;;477774;248;1282;-46
2021/12/08 07:23:08;;;;;;;;;;;20.70;34.10;;;;;;477890;248;2187;-46
2021/12/08 07:25:12;;;;;;;;;;;20.70;34.10;;;;;;477830;248;1077;-46
2021/12/08 07:27:11;;;;;;;;;;;20.70;34.10;;;;;;477690;249;1754;-46
2021/12/08 07:29:12;;;;;;;;;;;20.80;34.10;;;;;;477794;249;971;-47
2021/12/08 07:31:13;;;;;;;;;;;20.70;34.10;;;;;;477645;248;1278;-46
2021/12/08 07:33:15;;;;;;;;;;;20.70;34.10;;;;;;477767;248;1147;-46
2021/12/08 07:35:16;;;;;;;;;;;20.70;34.00;;;;;;477856;248;1180;-46
2021/12/08 07:37:17;;;;;;;;;;;20.70;33.90;;;;;;477624;249;1395;-46
2021/12/08 07:39:18;;;;;;;;;;;20.70;33.80;;;;;;477880;248;1291;-46
2021/12/08 07:41:20;;;;;;;;;;;20.80;33.80;;;;;;477804;249;1252;-46
2021/12/08 07:43:21;;;;;;;;;;;20.80;33.80;;;;;;477783;249;2214;-46
2021/12/08 07:45:23;;;;;;;;;;;20.80;33.70;;;;;;477688;249;1268;-46
2021/12/08 07:47:24;;;;;;;;;;;20.80;33.70;;;;;;478132;249;1274;-46
2021/12/08 07:49:25;;;;;;;;;;;20.90;33.70;;;;;;477723;249;1079;-46
2021/12/08 07:51:27;;;;;;;;;;;20.80;33.60;;;;;;477676;249;1076;-46
2021/12/08 07:53:28;;;;;;;;;;;21.00;33.40;;;;;;477734;249;1154;-46
2021/12/08 07:55:29;;;;;;;;;;;21.10;33.20;;;;;;477727;249;1068;-46
2021/12/08 07:57:31;;;;;;;;;;;21.20;33.00;;;;;;477660;249;1074;-46
2021/12/08 07:59:32;;;;;;;;;;;21.30;32.80;;;;;;477565;249;1057;-47
2021/12/08 08:01:33;;;;;;;;;;;21.40;32.70;;;;;;477725;249;1302;-46
2021/12/08 08:03:35;;;;;;;;;;;21.50;32.50;;;;;;477511;249;2195;-46
2021/12/08 08:05:36;;;;;;;;;;;21.60;32.30;;;;;;477655;249;1305;-46
2021/12/08 08:07:37;;;;;;;;;;;21.70;32.10;;;;;;477670;249;1052;-46
2021/12/08 08:09:40;;;;;;;;;;;21.80;32.00;;;;;;477753;249;1231;-47
2021/12/08 08:11:42;;;;;;;;;;;21.80;31.90;;;;;;477752;249;1545;-47
2021/12/08 08:13:42;;;;;;;;;;;21.90;31.90;;;;;;477502;249;2209;-46
2021/12/08 08:15:44;;;;;;;;;;;21.90;31.70;;;;;;477526;249;1244;-47
2021/12/08 08:17:46;;;;;;;;;;;22.00;31.70;;;;;;477450;249;2183;-47
2021/12/08 08:19:46;;;;;;;;;;;22.00;31.60;;;;;;477467;249;1424;-46
2021/12/08 08:21:47;;;;;;;;;;;22.00;31.50;;;;;;477489;248;1175;-47
2021/12/08 08:23:48;;;;;;;;;;;22.10;31.40;;;;;;477553;248;2187;-46
2021/12/08 08:25:50;;;;;;;;;;;22.10;31.40;;;;;;477504;249;1150;-46
2021/12/08 08:27:51;;;;;;;;;;;22.10;31.40;;;;;;477551;248;1140;-46
2021/12/08 08:29:54;;;;;;;;;;;22.10;31.20;;;;;;477477;249;1073;-46
2021/12/08 08:31:59;;;;;;;;;;;22.20;31.20;;;;;;477322;248;2115;-47
2021/12/08 08:33:55;;;;;;;;;;;22.30;31.30;;;;;;477405;248;2220;-46
2021/12/08 08:35:56;;;;;;;;;;;22.20;31.20;;;;;;477638;249;1198;-46
2021/12/08 08:37:58;;;;;;;;;;;22.30;31.10;;;;;;477644;249;1067;-46
2021/12/08 08:39:59;;;;;;;;;;;22.30;31.00;;;;;;477570;248;1051;-47
2021/12/08 08:42:01;;;;;;;;;;;22.40;31.00;;;;;;477538;249;1316;-46
2021/12/08 08:44:02;;;;;;;;;;;22.40;31.00;;;;;;477571;248;2199;-47
2021/12/08 08:46:04;;;;;;;;;;;22.40;30.90;;;;;;477648;249;1284;-47
2021/12/08 08:48:04;;;;;;;;;;;22.40;30.90;;;;;;477480;249;2113;-46
2021/12/08 08:50:06;;;;;;;;;;;22.40;30.90;;;;;;477593;248;1089;-46
2021/12/08 08:52:07;;;;;;;;;;;22.40;30.90;;;;;;477550;249;1284;-46
2021/12/08 08:54:08;;;;;;;;;;;22.40;30.80;;;;;;477756;249;1237;-47
2021/12/08 08:56:10;;;;;;;;;;;22.40;30.80;;;;;;477680;248;1354;-47
2021/12/08 08:58:11;;;;;;;;;;;22.50;30.80;;;;;;477833;248;1137;-47
2021/12/08 09:00:12;;;;;;;;;;;22.50;30.80;;;;;;477499;249;1382;-46
2021/12/08 09:02:13;;;;;;;;;;;22.50;30.70;;;;;;477616;249;1251;-46
2021/12/08 09:04:15;;;;;;;;;;;22.50;30.70;;;;;;477751;249;1234;-46
2021/12/08 09:06:16;;;;;;;;;;;22.50;30.70;;;;;;477565;249;1408;-46
2021/12/08 09:08:18;;;;;;;;;;;22.50;30.60;;;;;;477668;249;1233;-47
2021/12/08 09:10:19;;;;;;;;;;;22.60;30.60;;;;;;477594;249;2754;-47
2021/12/08 09:12:20;;;;;;;;;;;22.60;30.60;;;;;;477503;249;1072;-47
2021/12/08 09:14:21;;;;;;;;;;;22.60;30.50;;;;;;477561;249;1107;-46
2021/12/08 09:16:23;;;;;;;;;;;22.60;30.50;;;;;;477578;249;1336;-46
2021/12/08 09:18:24;;;;;;;;;;;22.60;30.50;;;;;;477413;249;1070;-46
2021/12/08 09:20:26;;;;;;;;;;;22.70;30.50;;;;;;477360;249;1213;-46
2021/12/08 09:22:29;;;;;;;;;;;22.70;30.40;;;;;;477468;249;2123;-46
2021/12/08 09:24:33;;;;;;;;;;;22.70;30.40;;;;;;477469;249;2285;-47
2021/12/08 09:26:30;;;;;;;;;;;22.70;30.40;;;;;;477333;248;2029;-47
2021/12/08 09:28:31;;;;;;;;;;;22.70;30.40;;;;;;477653;249;2019;-47
2021/12/08 09:30:33;;;;;;;;;;;22.70;30.30;;;;;;477508;248;1262;-47
2021/12/08 09:32:36;;;;;;;;;;;22.70;30.40;;;;;;477429;248;1860;-46
2021/12/08 09:34:36;;;;;;;;;;;22.70;30.30;;;;;;477471;249;1754;-47
2021/12/08 09:36:38;;;;;;;;;;;22.70;30.30;;;;;;477583;248;2105;-46
2021/12/08 09:38:38;;;;;;;;;;;22.70;30.30;;;;;;477502;249;1449;-47
2021/12/08 09:40:39;;;;;;;;;;;22.70;30.40;;;;;;477626;249;1145;-46
2021/12/08 09:42:41;;;;;;;;;;;22.70;30.30;;;;;;477544;249;2202;-47
2021/12/08 09:44:42;;;;;;;;;;;22.70;30.30;;;;;;477664;249;1198;-47
2021/12/08 09:46:43;;;;;;;;;;;22.80;30.30;;;;;;477899;249;1210;-47
2021/12/08 09:48:45;;;;;;;;;;;22.80;30.30;;;;;;477897;249;1114;-46
2021/12/08 09:50:46;;;;;;;;;;;22.80;30.20;;;;;;477438;249;1199;-46
2021/12/08 09:52:47;;;;;;;;;;;22.80;30.30;;;;;;477476;249;1094;-46
2021/12/08 09:54:49;;;;;;;;;;;22.80;30.30;;;;;;477737;248;1137;-47
2021/12/08 09:56:52;;;;;;;;;;;22.80;30.30;;;;;;477671;249;1202;-47
2021/12/08 09:58:52;;;;;;;;;;;22.80;30.20;;;;;;477593;248;2057;-46
2021/12/08 10:00:55;;;;;;;;;;;22.80;30.20;;;;;;477542;249;1490;-47
2021/12/08 10:02:58;;;;;;;;;;;22.90;30.10;;;;;;477643;248;2154;-46
2021/12/08 10:04:56;;;;;;;;;;;22.80;30.10;;;;;;477486;248;1998;-47
2021/12/08 10:06:57;;;;;;;;;;;22.80;30.10;;;;;;477629;249;1078;-46
2021/12/08 10:08:59;;;;;;;;;;;22.90;30.10;;;;;;477669;248;1239;-46
2021/12/08 10:11:00;;;;;;;;;;;22.80;30.10;;;;;;477674;249;1070;-47
2021/12/08 10:13:01;;;;;;;;;;;22.90;30.10;;;;;;477756;249;1266;-46
2021/12/08 10:15:03;;;;;;;;;;;22.90;30.10;;;;;;477692;248;1236;-47
2021/12/08 10:17:04;;;;;;;;;;;22.90;30.20;;;;;;477610;249;1335;-46
2021/12/08 10:19:05;;;;;;;;;;;22.90;30.10;;;;;;477560;249;1424;-47
2021/12/08 10:21:07;;;;;;;;;;;22.90;30.10;;;;;;477333;249;1463;-47
2021/12/08 10:23:08;;;;;;;;;;;22.90;30.00;;;;;;477405;249;2123;-46
2021/12/08 10:25:09;;;;;;;;;;;22.90;30.00;;;;;;477553;249;1066;-47
2021/12/08 10:27:11;;;;;;;;;;;22.90;30.00;;;;;;477500;249;1312;-47
2021/12/08 10:29:12;;;;;;;;;;;22.90;30.00;;;;;;477513;249;1217;-47
2021/12/08 10:31:14;;;;;;;;;;;22.90;30.00;;;;;;477483;249;1243;-47
2021/12/08 10:33:17;;;;;;;;;;;22.90;30.00;;;;;;477446;249;2410;-47
2021/12/08 10:35:16;;;;;;;;;;;22.90;30.00;;;;;;477316;249;2399;-46
2021/12/08 10:37:18;;;;;;;;;;;23.00;30.00;;;;;;477395;249;1138;-47
2021/12/08 10:39:19;;;;;;;;;;;23.00;30.00;;;;;;477602;248;2367;-46
2021/12/08 10:41:20;;;;;;;;;;;23.00;30.00;;;;;;477484;249;1210;-47
2021/12/08 10:43:21;;;;;;;;;;;23.00;30.00;;;;;;477641;249;2194;-47
2021/12/08 10:45:24;;;;;;;;;;;23.00;30.00;;;;;;477724;249;1171;-46
2021/12/08 10:47:24;;;;;;;;;;;23.00;30.00;;;;;;477391;249;1910;-46
2021/12/08 10:54:23;;;;;;;;;;;23.00;30.00;;;;;;477587;248;1113;-47
2021/12/08 10:56:06;;;;;;;;;;;23.00;29.90;;;;;;477290;248;1975;-46
2021/12/08 10:58:07;;;;;;;;;;;23.00;29.90;;;;;;477435;249;1259;-47
2021/12/08 11:00:09;;;;;;;;;;;23.00;29.90;;;;;;477470;249;1102;-47
2021/12/08 11:02:10;;;;;;;;;;;23.10;29.90;;;;;;477772;249;1319;-47
2021/12/08 11:04:13;;;;;;;;;;;23.10;29.90;;;;;;477983;249;2199;-47
2021/12/08 11:06:15;;;;;;;;;;;23.00;29.90;;;;;;477853;249;2089;-47
2021/12/08 11:08:14;;;;;;;;;;;23.10;29.90;;;;;;478105;248;2002;-47
2021/12/08 11:10:15;;;;;;;;;;;23.10;29.90;;;;;;477967;248;1211;-46
2021/12/08 11:12:17;;;;;;;;;;;23.10;29.80;;;;;;477499;249;1238;-47
2021/12/08 11:14:18;;;;;;;;;;;23.00;29.80;;;;;;477665;248;1294;-47
2021/12/08 11:16:19;;;;;;;;;;;23.10;29.90;;;;;;477738;248;1170;-46
2021/12/08 11:18:21;;;;;;;;;;;23.00;29.90;;;;;;477781;249;1276;-47
2021/12/08 11:20:23;;;;;;;;;;;23.00;29.90;;;;;;477415;249;1106;-46
2021/12/08 11:22:23;;;;;;;;;;;23.00;29.80;;;;;;477545;248;2253;-47
2021/12/08 11:24:31;;;;;;;;;;;23.10;29.90;;;;;;477671;249;2183;-47
2021/12/08 11:26:26;;;;;;;;;;;23.00;29.90;;;;;;477294;248;1258;-47
2021/12/08 11:28:29;;;;;;;;;;;23.10;29.90;;;;;;477608;249;1138;-47
2021/12/08 11:30:31;;;;;;;;;;;23.00;29.80;;;;;;477634;249;1103;-46
2021/12/08 11:32:32;;;;;;;;;;;23.00;29.80;;;;;;477818;249;1103;-47
2021/12/08 11:34:33;;;;;;;;;;;23.10;29.80;;;;;;477708;249;1237;-46
2021/12/08 11:36:35;;;;;;;;;;;23.10;29.80;;;;;;477686;249;1240;-46
2021/12/08 11:38:36;;;;;;;;;;;23.10;29.80;;;;;;477620;249;1180;-47
2021/12/08 11:40:37;;;;;;;;;;;23.10;29.70;;;;;;477349;249;1325;-47
2021/12/08 11:42:39;;;;;;;;;;;23.10;29.70;;;;;;477344;249;1227;-46
2021/12/08 11:44:40;;;;;;;;;;;23.10;29.80;;;;;;477449;249;2206;-47
2021/12/08 11:46:42;;;;;;;;;;;23.10;29.70;;;;;;477370;249;1182;-47
2021/12/08 11:48:43;;;;;;;;;;;23.10;29.80;;;;;;477543;249;1289;-46
2021/12/08 11:50:44;;;;;;;;;;;23.20;29.80;;;;;;477704;249;1186;-47
2021/12/08 11:52:46;;;;;;;;;;;23.10;29.70;;;;;;477794;249;1682;-46
2021/12/08 11:54:47;;;;;;;;;;;23.10;29.70;;;;;;477703;249;1079;-46
2021/12/08 11:56:48;;;;;;;;;;;23.20;29.80;;;;;;477590;249;1404;-47
2021/12/08 11:58:50;;;;;;;;;;;23.20;29.80;;;;;;477644;249;1184;-47
2021/12/08 12:00:52;;;;;;;;;;;23.20;29.80;;;;;;477415;249;1180;-46
2021/12/08 12:02:55;;;;;;;;;;;23.20;29.70;;;;;;477499;248;1853;-46
2021/12/08 12:04:54;;;;;;;;;;;23.20;29.70;;;;;;477531;249;2208;-46
2021/12/08 12:06:55;;;;;;;;;;;23.20;29.70;;;;;;477920;249;1616;-47
2021/12/08 12:08:56;;;;;;;;;;;23.20;29.70;;;;;;477669;249;1220;-47
2021/12/08 12:11:01;;;;;;;;;;;23.20;29.70;;;;;;477577;249;1208;-46
2021/12/08 12:12:59;;;;;;;;;;;23.20;29.70;;;;;;477432;249;2300;-46
2021/12/08 12:15:00;;;;;;;;;;;23.20;29.70;;;;;;477580;249;1445;-46
2021/12/08 12:17:02;;;;;;;;;;;23.20;29.70;;;;;;477455;249;1166;-47
2021/12/08 12:19:03;;;;;;;;;;;23.20;29.70;;;;;;477479;249;1348;-46
2021/12/08 12:21:04;;;;;;;;;;;23.20;29.70;;;;;;477559;249;1173;-46
2021/12/08 12:23:06;;;;;;;;;;;23.20;29.70;;;;;;477468;249;1078;-47
2021/12/08 12:25:09;;;;;;;;;;;23.20;29.70;;;;;;477688;249;2125;-46
2021/12/08 12:27:08;;;;;;;;;;;23.20;29.70;;;;;;477562;248;2082;-47